createdAt,value
2017-08-04T00:01:02.167Z,73.50
2017-08-04T00:03:29.755Z,71.60
2017-08-04T00:05:57.308Z,71.20
2017-08-04T00:08:24.899Z,70.90
2017-08-04T00:10:52.493Z,70.60
2017-08-04T00:13:20.059Z,70.80
2017-08-04T00:15:47.950Z,70.60
2017-08-04T00:18:15.871Z,71.90
2017-08-04T00:20:44.064Z,72.20
2017-08-04T00:23:11.612Z,71.80
2017-08-04T00:25:39.175Z,71.00
2017-08-04T00:28:06.769Z,70.50
2017-08-04T00:30:34.331Z,69.70
2017-08-04T00:33:01.894Z,69.90
2017-08-04T00:35:29.486Z,70.00
2017-08-04T00:37:57.048Z,70.40
2017-08-04T00:40:24.597Z,70.30
2017-08-04T00:42:52.955Z,70.40
2017-08-04T00:45:20.518Z,69.70
2017-08-04T00:47:48.080Z,70.30
2017-08-04T00:50:15.675Z,70.60
2017-08-04T00:52:43.236Z,70.90
2017-08-04T00:55:10.828Z,71.00
2017-08-04T00:57:38.422Z,72.60
2017-08-04T01:00:06.014Z,72.80
2017-08-04T01:02:33.582Z,73.10
2017-08-04T01:05:01.171Z,73.20
2017-08-04T01:07:28.762Z,72.80
2017-08-04T01:09:56.324Z,72.50
2017-08-04T01:12:23.884Z,72.60
2017-08-04T01:14:51.465Z,72.70
2017-08-04T01:17:19.033Z,71.60
2017-08-04T01:19:46.630Z,71.80
2017-08-04T01:22:14.184Z,71.60
2017-08-04T01:24:41.731Z,71.80
2017-08-04T01:27:09.326Z,72.10
2017-08-04T01:29:36.889Z,71.60
2017-08-04T01:32:04.475Z,71.30
2017-08-04T01:34:32.028Z,71.50
2017-08-04T01:36:59.626Z,71.90
2017-08-04T01:39:27.184Z,71.50
2017-08-04T01:41:54.776Z,71.50
2017-08-04T01:44:22.354Z,71.40
2017-08-04T01:46:49.946Z,71.60
2017-08-04T01:49:17.540Z,71.50
2017-08-04T01:51:45.087Z,71.70
2017-08-04T01:54:12.680Z,71.90
2017-08-04T01:56:40.273Z,72.20
2017-08-04T01:59:07.813Z,72.20
2017-08-04T02:01:35.374Z,72.60
2017-08-04T02:04:02.991Z,72.80
2017-08-04T02:06:30.553Z,73.10
2017-08-04T02:08:58.102Z,73.70
2017-08-04T02:11:25.710Z,73.80
2017-08-04T02:13:53.275Z,74.00
2017-08-04T02:16:20.837Z,74.40
2017-08-04T02:18:48.535Z,74.30
2017-08-04T02:21:16.083Z,74.00
2017-08-04T02:23:44.425Z,74.10
2017-08-04T02:26:12.018Z,74.10
2017-08-04T02:28:40.346Z,73.90
2017-08-04T02:31:07.950Z,73.80
2017-08-04T02:33:36.283Z,74.40
2017-08-04T02:36:03.844Z,73.50
2017-08-04T02:38:31.421Z,73.60
2017-08-04T02:40:58.969Z,73.50
2017-08-04T02:43:26.563Z,72.90
2017-08-04T02:45:54.125Z,72.50
2017-08-04T02:48:21.676Z,72.60
2017-08-04T02:50:49.252Z,72.60
2017-08-04T02:53:16.814Z,73.30
2017-08-04T02:55:45.188Z,73.90
2017-08-04T02:58:12.751Z,73.10
2017-08-04T03:00:40.312Z,73.40
2017-08-04T03:03:08.670Z,73.10
2017-08-04T03:05:36.217Z,73.10
2017-08-04T03:08:03.811Z,73.30
2017-08-04T03:10:32.138Z,74.30
2017-08-04T03:12:59.706Z,74.20
2017-08-04T03:15:27.278Z,74.30
2017-08-04T03:17:54.828Z,73.30
2017-08-04T03:20:22.421Z,73.50
2017-08-04T03:22:50.007Z,73.80
2017-08-04T03:25:17.592Z,73.90
2017-08-04T03:27:45.199Z,74.10
2017-08-04T03:30:12.762Z,73.90
2017-08-04T03:32:40.323Z,73.60
2017-08-04T03:35:07.915Z,73.90
2017-08-04T03:37:35.464Z,73.80
2017-08-04T03:40:03.825Z,73.40
2017-08-04T03:42:31.385Z,73.30
2017-08-04T03:44:59.713Z,73.20
2017-08-04T03:47:27.305Z,73.50
2017-08-04T03:49:54.852Z,73.40
2017-08-04T03:52:22.407Z,73.70
2017-08-04T03:54:50.009Z,73.50
2017-08-04T03:57:18.338Z,74.50
2017-08-04T03:59:45.900Z,73.70
2017-08-04T04:02:13.508Z,73.50
2017-08-04T04:04:41.836Z,74.00
2017-08-04T04:07:09.444Z,74.00
2017-08-04T04:09:37.007Z,73.70
2017-08-04T04:12:05.391Z,73.50
2017-08-04T04:14:32.958Z,73.50
2017-08-04T04:17:00.570Z,73.90
2017-08-04T04:19:28.129Z,74.50
2017-08-04T04:21:55.720Z,74.10
2017-08-04T04:24:24.048Z,74.60
2017-08-04T04:26:51.618Z,73.70
2017-08-04T04:29:19.218Z,73.60
2017-08-04T04:31:47.547Z,74.50
2017-08-04T04:34:15.094Z,73.80
2017-08-04T04:36:42.688Z,75.20
2017-08-04T04:39:10.251Z,76.20
2017-08-04T04:41:37.842Z,75.70
2017-08-04T04:44:06.171Z,76.10
2017-08-04T04:46:33.759Z,76.00
2017-08-04T04:49:01.312Z,76.10
2017-08-04T04:51:28.875Z,76.80
2017-08-04T04:53:56.453Z,77.10
2017-08-04T04:58:58.029Z,77.10
2017-08-04T05:01:26.358Z,76.90
2017-08-04T05:03:53.909Z,76.90
2017-08-04T05:06:21.497Z,76.40
2017-08-04T05:08:49.061Z,76.10
2017-08-04T05:11:16.658Z,76.80
2017-08-04T05:13:44.365Z,75.60
2017-08-04T05:16:11.915Z,76.20
2017-08-04T05:18:39.485Z,76.00
2017-08-04T05:21:07.040Z,75.40
2017-08-04T05:23:34.649Z,76.10
2017-08-04T05:26:02.211Z,77.80
2017-08-04T05:28:30.538Z,77.40
2017-08-04T05:30:58.132Z,77.20
2017-08-04T05:33:25.695Z,77.50
2017-08-04T05:35:53.302Z,77.10
2017-08-04T05:38:20.865Z,77.90
2017-08-04T05:40:49.298Z,77.40
2017-08-04T05:43:16.890Z,77.20
2017-08-04T05:45:44.452Z,76.90
2017-08-04T05:48:12.105Z,77.10
2017-08-04T05:50:39.654Z,76.80
2017-08-04T05:53:07.217Z,76.90
2017-08-04T05:55:35.578Z,77.60
2017-08-04T05:58:03.124Z,76.80
2017-08-04T06:00:30.715Z,76.60
2017-08-04T06:02:58.279Z,75.80
2017-08-04T06:05:25.871Z,75.70
2017-08-04T06:07:53.471Z,75.70
2017-08-04T06:10:21.207Z,75.30
2017-08-04T06:12:48.828Z,75.60
2017-08-04T06:15:17.141Z,75.20
2017-08-04T06:17:44.739Z,75.10
2017-08-04T06:20:12.327Z,75.10
2017-08-04T06:22:39.876Z,74.80
2017-08-04T06:25:08.300Z,74.70
2017-08-04T06:27:35.889Z,74.70
2017-08-04T06:30:03.466Z,74.60
2017-08-04T06:32:31.058Z,74.60
2017-08-04T06:34:58.620Z,74.80
2017-08-04T06:37:26.177Z,75.00
2017-08-04T06:39:53.764Z,75.00
2017-08-04T06:42:21.347Z,75.60
2017-08-04T06:44:49.699Z,75.70
2017-08-04T06:47:17.291Z,75.70
2017-08-04T06:50:05.693Z,74.80
2017-08-04T06:52:45.018Z,74.80
2017-08-04T06:55:20.404Z,72.70
2017-08-04T06:57:48.004Z,72.20
2017-08-04T07:00:15.568Z,71.90
2017-08-04T07:02:43.207Z,71.40
2017-08-04T07:05:10.814Z,71.60
2017-08-04T07:07:38.376Z,72.80
2017-08-04T07:10:05.970Z,73.10
2017-08-04T07:12:33.913Z,73.10
2017-08-04T07:15:03.127Z,72.10
2017-08-04T07:17:31.899Z,71.90
2017-08-04T07:20:00.558Z,71.00
2017-08-04T07:22:28.723Z,71.20
2017-08-04T07:24:56.567Z,71.30
2017-08-04T07:27:24.223Z,71.10
2017-08-04T07:29:51.951Z,70.20
2017-08-04T07:32:19.742Z,70.70
2017-08-04T07:34:47.409Z,70.50
2017-08-04T07:37:15.020Z,68.90
2017-08-04T07:39:43.845Z,68.70
2017-08-04T07:42:11.442Z,68.20
2017-08-04T07:44:40.522Z,67.70
2017-08-04T07:47:08.085Z,67.60
2017-08-04T07:49:35.675Z,67.80
2017-08-04T07:52:03.504Z,66.30
2017-08-04T07:54:32.000Z,67.40
2017-08-04T07:56:59.707Z,66.90
2017-08-04T07:59:27.288Z,66.40
2017-08-04T08:01:55.111Z,65.20
2017-08-04T08:04:22.823Z,66.00
2017-08-04T08:06:51.164Z,65.20
2017-08-04T08:09:23.664Z,65.40
2017-08-04T08:11:54.590Z,65.00
2017-08-04T08:14:24.244Z,65.00
2017-08-04T08:16:51.863Z,65.50
2017-08-04T08:19:22.952Z,64.90
2017-08-04T08:21:51.439Z,63.40
2017-08-04T08:24:21.045Z,63.00
2017-08-04T08:26:50.746Z,63.00
2017-08-04T08:29:18.310Z,63.60
2017-08-04T08:31:46.115Z,62.40
2017-08-04T08:34:13.950Z,61.60
2017-08-04T08:36:41.574Z,61.70
2017-08-04T08:39:09.153Z,60.40
2017-08-04T08:41:36.747Z,60.60
2017-08-04T08:44:05.106Z,60.70
2017-08-04T08:46:32.669Z,60.70
2017-08-04T08:49:00.525Z,61.50
2017-08-04T08:51:28.750Z,62.10
2017-08-04T08:53:56.381Z,63.20
2017-08-04T08:56:23.949Z,64.10
2017-08-04T08:58:51.566Z,63.70
2017-08-04T09:01:19.121Z,63.60
2017-08-04T09:03:46.723Z,63.90
2017-08-04T09:06:14.285Z,65.30
2017-08-04T09:08:42.659Z,64.30
2017-08-04T09:11:11.027Z,65.20
2017-08-04T09:13:38.595Z,64.60
2017-08-04T09:16:06.163Z,63.30
2017-08-04T09:18:33.750Z,63.60
2017-08-04T09:21:01.369Z,62.50
2017-08-04T09:23:28.921Z,62.30
2017-08-04T09:25:56.493Z,61.40
2017-08-04T09:28:24.076Z,61.30
2017-08-04T09:30:51.632Z,61.10
2017-08-04T09:33:19.999Z,60.20
2017-08-04T09:35:48.329Z,60.70
2017-08-04T09:38:15.889Z,60.00
2017-08-04T09:40:43.483Z,59.70
2017-08-04T09:43:11.048Z,60.20
2017-08-04T09:45:38.610Z,59.90
2017-08-04T09:48:06.540Z,60.70
2017-08-04T09:50:34.127Z,61.10
2017-08-04T09:53:01.705Z,62.10
2017-08-04T09:55:29.299Z,62.40
2017-08-04T09:57:56.928Z,61.40
2017-08-04T10:00:24.538Z,62.20
2017-08-04T10:02:52.097Z,61.40
2017-08-04T10:05:19.661Z,60.70
2017-08-04T10:07:47.270Z,60.70
2017-08-04T10:10:15.593Z,61.30
2017-08-04T10:12:43.187Z,61.20
2017-08-04T10:15:10.747Z,62.20
2017-08-04T10:17:38.343Z,62.50
2017-08-04T10:20:05.935Z,62.60
2017-08-04T10:22:33.520Z,63.00
2017-08-04T10:25:01.075Z,63.80
2017-08-04T10:27:28.661Z,63.80
2017-08-04T10:29:56.217Z,63.40
2017-08-04T10:32:23.813Z,63.40
2017-08-04T10:34:51.402Z,63.50
2017-08-04T10:37:18.995Z,63.10
2017-08-04T10:39:46.581Z,63.10
2017-08-04T10:42:14.901Z,59.90
2017-08-04T10:44:42.494Z,59.90
2017-08-04T10:47:10.853Z,59.00
2017-08-04T10:49:38.411Z,58.70
2017-08-04T10:52:06.012Z,58.80
2017-08-04T10:54:33.602Z,58.40
2017-08-04T10:57:01.200Z,57.80
2017-08-04T10:59:28.774Z,56.80
2017-08-04T11:01:56.860Z,57.80
2017-08-04T11:04:25.233Z,56.20
2017-08-04T11:06:52.826Z,56.10
2017-08-04T11:09:20.389Z,56.70
2017-08-04T11:11:49.215Z,56.80
2017-08-04T11:14:16.838Z,56.80
2017-08-04T11:16:44.427Z,56.20
2017-08-04T11:19:12.831Z,56.80
2017-08-04T11:21:40.395Z,56.00
2017-08-04T11:24:07.981Z,56.50
2017-08-04T11:26:35.551Z,56.50
2017-08-04T11:29:03.114Z,56.20
2017-08-04T11:31:30.706Z,56.30
2017-08-04T11:33:58.271Z,56.80
2017-08-04T11:36:25.833Z,56.50
2017-08-04T11:38:53.447Z,56.70
2017-08-04T11:41:21.004Z,56.90
2017-08-04T11:43:48.597Z,57.40
2017-08-04T11:46:16.176Z,57.30
2017-08-04T11:48:43.737Z,57.70
2017-08-04T11:51:11.315Z,56.80
2017-08-04T11:53:38.864Z,57.40
2017-08-04T11:56:06.503Z,57.60
2017-08-04T11:58:34.065Z,57.20
2017-08-04T12:01:01.658Z,58.40
2017-08-04T12:03:29.220Z,58.50
2017-08-04T12:05:56.814Z,59.10
2017-08-04T12:08:24.822Z,59.00
2017-08-04T12:10:53.935Z,60.10
2017-08-04T12:13:21.535Z,59.50
2017-08-04T12:15:52.040Z,60.90
2017-08-04T12:18:21.236Z,61.10
2017-08-04T12:20:48.830Z,60.20
2017-08-04T12:23:16.408Z,60.00
2017-08-04T12:25:44.001Z,60.30
2017-08-04T12:28:11.599Z,59.90
2017-08-04T12:30:39.171Z,59.70
2017-08-04T12:33:06.757Z,59.50
2017-08-04T12:35:35.152Z,59.80
2017-08-04T12:38:02.746Z,59.10
2017-08-04T12:40:30.308Z,59.50
2017-08-04T12:42:57.871Z,59.30
2017-08-04T12:45:26.230Z,58.90
2017-08-04T12:47:53.792Z,58.80
2017-08-04T12:50:21.386Z,59.50
2017-08-04T12:52:48.932Z,58.50
2017-08-04T12:55:16.482Z,57.50
2017-08-04T12:57:44.118Z,57.40
2017-08-04T13:00:11.682Z,57.30
2017-08-04T13:02:39.996Z,57.00
2017-08-04T13:05:07.596Z,58.00
2017-08-04T13:07:35.199Z,58.70
2017-08-04T13:10:02.793Z,59.30
2017-08-04T13:12:30.385Z,59.10
2017-08-04T13:14:58.025Z,58.50
2017-08-04T13:17:25.573Z,59.30
2017-08-04T13:19:53.168Z,59.30
2017-08-04T13:22:20.775Z,59.00
2017-08-04T13:24:49.148Z,57.80
2017-08-04T13:27:17.491Z,57.50
2017-08-04T13:29:45.039Z,57.50
2017-08-04T13:32:12.635Z,58.40
2017-08-04T13:34:40.194Z,57.70
2017-08-04T13:37:07.788Z,57.30
2017-08-04T13:39:35.351Z,56.60
2017-08-04T13:42:02.913Z,56.60
2017-08-04T13:44:30.507Z,56.90
2017-08-04T13:46:58.849Z,56.80
2017-08-04T13:49:27.117Z,56.30
2017-08-04T13:51:54.710Z,56.50
2017-08-04T13:54:22.303Z,56.40
2017-08-04T13:56:50.318Z,56.70
2017-08-04T13:59:17.895Z,56.40
2017-08-04T14:01:45.467Z,56.30
2017-08-04T14:04:13.080Z,55.30
2017-08-04T14:06:43.343Z,55.30
2017-08-04T14:09:10.905Z,56.10
2017-08-04T14:11:38.490Z,56.80
2017-08-04T14:14:06.027Z,57.50
2017-08-04T14:16:34.420Z,57.00
2017-08-04T14:19:01.963Z,57.00
2017-08-04T14:21:29.565Z,57.60
2017-08-04T14:23:57.118Z,57.30
2017-08-04T14:26:24.675Z,57.50
2017-08-04T14:28:52.264Z,58.10
2017-08-04T14:31:20.637Z,56.70
2017-08-04T14:33:48.229Z,56.70
2017-08-04T14:36:15.823Z,56.20
2017-08-04T14:38:47.210Z,56.20
2017-08-04T14:41:15.569Z,55.50
2017-08-04T14:43:43.125Z,55.50
2017-08-04T14:46:10.680Z,55.70
2017-08-04T14:48:38.271Z,55.80
2017-08-04T14:51:06.588Z,54.80
2017-08-04T14:53:34.147Z,54.80
2017-08-04T14:56:01.740Z,54.80
2017-08-04T14:58:29.304Z,55.10
2017-08-04T15:00:56.895Z,55.10
2017-08-04T15:03:24.444Z,55.30
2017-08-04T15:05:52.007Z,54.40
2017-08-04T15:08:19.659Z,53.80
2017-08-04T15:10:47.986Z,53.90
2017-08-04T15:13:15.580Z,53.80
2017-08-04T15:15:43.187Z,53.80
2017-08-04T15:18:11.261Z,53.60
2017-08-04T15:20:38.807Z,53.60
2017-08-04T15:23:06.402Z,53.50
2017-08-04T15:25:33.964Z,53.50
2017-08-04T15:28:01.527Z,53.70
2017-08-04T15:30:29.120Z,54.00
2017-08-04T15:32:56.712Z,53.70
2017-08-04T15:35:24.335Z,53.40
2017-08-04T15:37:51.882Z,53.20
2017-08-04T15:40:19.460Z,51.90
2017-08-04T15:42:47.054Z,52.90
2017-08-04T15:45:14.616Z,52.50
2017-08-04T15:47:42.179Z,52.20
2017-08-04T15:50:09.750Z,51.70
2017-08-04T15:52:37.335Z,52.10
2017-08-04T15:55:04.882Z,51.70
2017-08-04T15:57:32.474Z,52.00
2017-08-04T16:00:00.023Z,51.40
2017-08-04T16:02:27.614Z,52.10
2017-08-04T16:04:55.208Z,51.70
2017-08-04T16:07:22.800Z,52.20
2017-08-04T16:09:50.342Z,52.00
2017-08-04T16:12:17.902Z,51.90
2017-08-04T16:14:45.490Z,52.20
2017-08-04T16:17:13.066Z,52.60
2017-08-04T16:19:40.634Z,52.60
2017-08-04T16:22:08.985Z,53.10
2017-08-04T16:24:36.730Z,53.10
2017-08-04T16:27:05.298Z,52.80
2017-08-04T16:29:32.890Z,53.00
2017-08-04T16:32:00.455Z,53.30
2017-08-04T16:34:28.031Z,53.60
2017-08-04T16:36:56.555Z,53.40
2017-08-04T16:39:24.147Z,53.60
2017-08-04T16:41:51.713Z,53.50
2017-08-04T16:44:19.258Z,53.80
2017-08-04T16:46:46.837Z,53.80
2017-08-04T16:49:14.390Z,54.00
2017-08-04T16:51:41.985Z,53.50
2017-08-04T16:54:09.569Z,53.70
2017-08-04T16:56:37.118Z,53.40
2017-08-04T16:59:04.696Z,53.20
2017-08-04T17:01:32.259Z,53.20
2017-08-04T17:03:59.896Z,53.60
2017-08-04T17:06:27.459Z,53.50
2017-08-04T17:08:55.038Z,53.20
2017-08-04T17:11:22.630Z,53.50
2017-08-04T17:13:50.208Z,52.90
2017-08-04T17:16:17.791Z,53.60
2017-08-04T17:18:46.113Z,53.10
2017-08-04T17:21:13.818Z,53.10
2017-08-04T17:23:41.390Z,53.80
2017-08-04T17:26:08.969Z,54.20
2017-08-04T17:28:36.533Z,54.20
2017-08-04T17:31:04.111Z,54.60
2017-08-04T17:33:31.658Z,55.00
2017-08-04T17:35:59.425Z,54.80
2017-08-04T17:38:27.009Z,54.30
2017-08-04T17:40:54.620Z,54.80
2017-08-04T17:43:22.196Z,54.40
2017-08-04T17:45:49.811Z,54.90
2017-08-04T17:48:18.041Z,54.60
2017-08-04T17:50:46.294Z,54.80
2017-08-04T17:53:13.862Z,54.90
2017-08-04T17:55:41.450Z,55.30
2017-08-04T17:58:31.622Z,55.30
2017-08-04T18:00:59.216Z,55.20
2017-08-04T18:03:26.798Z,55.40
2017-08-04T18:05:54.431Z,55.50
2017-08-04T18:08:22.031Z,55.60
2017-08-04T18:10:50.529Z,55.70
2017-08-04T18:13:18.082Z,55.80
2017-08-04T18:15:45.674Z,55.90
2017-08-04T18:18:13.223Z,56.00
2017-08-04T18:20:41.386Z,55.90
2017-08-04T18:23:09.620Z,56.10
2017-08-04T18:25:37.236Z,56.30
2017-08-04T18:28:06.516Z,56.30
2017-08-04T18:30:35.083Z,56.40
2017-08-04T18:33:02.671Z,56.40
2017-08-04T18:35:30.233Z,56.70
2017-08-04T18:37:57.798Z,56.80
2017-08-04T18:40:25.811Z,56.50
2017-08-04T18:42:53.374Z,57.00
2017-08-04T18:45:21.836Z,56.80
2017-08-04T18:47:49.389Z,57.10
2017-08-04T18:50:16.968Z,57.30
2017-08-04T18:52:45.336Z,57.20
2017-08-04T18:55:12.920Z,57.70
2017-08-04T18:57:40.596Z,57.90
2017-08-04T19:00:08.206Z,57.90
2017-08-04T19:02:35.769Z,58.00
2017-08-04T19:05:03.315Z,58.20
2017-08-04T19:07:30.909Z,58.30
2017-08-04T19:09:58.472Z,58.60
2017-08-04T19:12:26.984Z,59.00
2017-08-04T19:14:54.548Z,59.50
2017-08-04T19:17:22.137Z,59.50
2017-08-04T19:19:49.744Z,59.40
2017-08-04T19:22:17.330Z,59.60
2017-08-04T19:24:44.919Z,60.00
2017-08-04T19:27:12.469Z,60.30
2017-08-04T19:29:40.059Z,60.70
2017-08-04T19:32:07.877Z,60.70
2017-08-04T19:34:36.400Z,60.90
2017-08-04T19:37:04.294Z,60.90
2017-08-04T19:39:31.844Z,61.10
2017-08-04T19:42:00.299Z,61.40
2017-08-04T19:44:28.682Z,61.50
2017-08-04T19:46:56.233Z,62.00
2017-08-04T19:49:23.842Z,63.70
2017-08-04T19:51:52.150Z,64.10
2017-08-04T19:54:19.715Z,64.50
2017-08-04T19:56:47.308Z,63.70
2017-08-04T19:59:14.870Z,64.00
2017-08-04T20:01:42.462Z,63.90
2017-08-04T20:04:10.011Z,64.20
2017-08-04T20:06:37.602Z,63.90
2017-08-04T20:09:05.949Z,63.90
2017-08-04T20:11:33.542Z,63.90
2017-08-04T20:14:01.088Z,63.10
2017-08-04T20:16:28.650Z,63.40
2017-08-04T20:18:57.029Z,63.30
2017-08-04T20:21:24.602Z,63.30
2017-08-04T20:23:52.200Z,63.40
2017-08-04T20:26:20.665Z,63.70
2017-08-04T20:28:48.286Z,63.30
2017-08-04T20:31:15.851Z,63.10
2017-08-04T20:33:44.177Z,67.20
2017-08-04T20:36:11.800Z,67.50
2017-08-04T20:38:39.435Z,67.60
2017-08-04T20:41:07.044Z,68.40
2017-08-04T20:43:34.837Z,69.00
2017-08-04T20:46:02.423Z,68.50
2017-08-04T20:48:29.986Z,67.70
2017-08-04T20:50:57.685Z,68.50
2017-08-04T20:53:25.233Z,67.70
2017-08-04T20:55:54.690Z,68.00
2017-08-04T20:58:22.250Z,68.00
2017-08-04T21:00:49.851Z,68.80
2017-08-04T21:03:18.451Z,69.40
2017-08-04T21:05:46.033Z,69.40
2017-08-04T21:08:13.597Z,68.60
2017-08-04T21:10:41.195Z,67.90
2017-08-04T21:13:08.756Z,67.90
2017-08-04T21:15:36.390Z,67.80
2017-08-04T21:18:03.953Z,68.10
2017-08-04T21:20:31.546Z,67.70
2017-08-04T21:22:59.114Z,67.50
2017-08-04T21:25:27.467Z,68.20
2017-08-04T21:27:55.016Z,68.00
2017-08-04T21:30:22.578Z,68.10
2017-08-04T21:32:50.863Z,68.30
2017-08-04T21:35:18.514Z,68.30
2017-08-04T21:37:46.145Z,67.70
2017-08-04T21:40:13.702Z,67.60
2017-08-04T21:42:41.251Z,68.60
2017-08-04T21:45:08.842Z,68.50
2017-08-04T21:47:36.392Z,68.80
2017-08-04T21:50:03.983Z,69.30
2017-08-04T21:52:31.846Z,69.20
2017-08-04T21:54:59.456Z,69.50
2017-08-04T21:57:27.064Z,69.30
2017-08-04T21:59:54.658Z,70.10
2017-08-04T22:02:23.031Z,70.30
2017-08-04T22:04:50.592Z,69.60
2017-08-04T22:07:18.951Z,69.90
2017-08-04T22:09:46.498Z,69.80
2017-08-04T22:12:14.092Z,70.00
2017-08-04T22:14:42.434Z,70.50
2017-08-04T22:17:09.996Z,70.10
2017-08-04T22:19:37.590Z,70.10
2017-08-04T22:22:05.153Z,70.10
2017-08-04T22:24:33.076Z,69.60
2017-08-04T22:27:00.638Z,69.40
2017-08-04T22:29:28.201Z,69.60
2017-08-04T22:31:55.793Z,70.20
2017-08-04T22:34:23.358Z,71.10
2017-08-04T22:36:51.714Z,71.80
2017-08-04T22:39:19.263Z,70.90
2017-08-04T22:41:46.817Z,71.10
2017-08-04T22:44:14.972Z,72.30
2017-08-04T22:46:42.521Z,72.10
2017-08-04T22:49:10.114Z,72.70
2017-08-04T22:51:37.660Z,73.60
2017-08-04T22:54:05.289Z,73.50
2017-08-04T22:56:32.848Z,73.80
2017-08-04T22:59:00.417Z,73.60
2017-08-04T23:01:28.002Z,74.00
2017-08-04T23:03:55.565Z,73.90
2017-08-04T23:06:23.158Z,74.00
2017-08-04T23:08:50.737Z,73.90
2017-08-04T23:11:18.329Z,74.00
2017-08-04T23:13:45.877Z,73.90
2017-08-04T23:16:13.441Z,74.10
2017-08-04T23:18:41.034Z,73.90
2017-08-04T23:21:08.594Z,75.80
2017-08-04T23:23:36.187Z,76.00
2017-08-04T23:26:03.767Z,75.80
2017-08-04T23:28:31.333Z,74.80
2017-08-04T23:30:58.936Z,73.50
2017-08-04T23:33:26.486Z,72.50
2017-08-04T23:35:54.051Z,73.50
2017-08-04T23:38:22.646Z,72.60
2017-08-04T23:40:50.209Z,72.70
2017-08-04T23:43:17.771Z,73.00
2017-08-04T23:45:45.362Z,73.80
2017-08-04T23:48:12.956Z,72.70
2017-08-04T23:50:40.551Z,73.30
2017-08-04T23:53:08.160Z,72.30
2017-08-04T23:55:35.720Z,71.60
2017-08-04T23:58:03.282Z,71.80
